sensor_id;sensor_type;location;lat;lon;timestamp;temperature;humidity
298;DHT22;133;49.626;9.680;2023-05-20T00:00:54;15.20;78.20
298;DHT22;133;49.626;9.680;2023-05-20T00:03:20;15.20;78.30
298;DHT22;133;49.626;9.680;2023-05-20T00:05:46;15.20;78.30
298;DHT22;133;49.626;9.680;2023-05-20T00:08:12;15.10;78.60
298;DHT22;133;49.626;9.680;2023-05-20T00:10:38;15.10;78.60
298;DHT22;133;49.626;9.680;2023-05-20T00:13:04;15.10;78.70
298;DHT22;133;49.626;9.680;2023-05-20T00:15:31;15.10;78.70
298;DHT22;133;49.626;9.680;2023-05-20T00:17:56;15.10;78.60
298;DHT22;133;49.626;9.680;2023-05-20T00:20:22;15.10;78.60
298;DHT22;133;49.626;9.680;2023-05-20T00:22:47;15.10;78.80
298;DHT22;133;49.626;9.680;2023-05-20T00:25:13;15.00;78.90
298;DHT22;133;49.626;9.680;2023-05-20T00:27:39;15.00;79.00
298;DHT22;133;49.626;9.680;2023-05-20T00:30:06;15.10;79.10
298;DHT22;133;49.626;9.680;2023-05-20T00:32:32;15.00;79.40
298;DHT22;133;49.626;9.680;2023-05-20T00:34:59;15.00;79.20
298;DHT22;133;49.626;9.680;2023-05-20T00:37:25;15.00;79.10
298;DHT22;133;49.626;9.680;2023-05-20T00:39:51;15.10;78.80
298;DHT22;133;49.626;9.680;2023-05-20T00:42:21;15.10;78.70
298;DHT22;133;49.626;9.680;2023-05-20T00:44:47;15.10;78.90
298;DHT22;133;49.626;9.680;2023-05-20T00:47:14;15.10;78.90
298;DHT22;133;49.626;9.680;2023-05-20T00:49:40;15.10;78.90
298;DHT22;133;49.626;9.680;2023-05-20T00:52:07;15.00;78.90
298;DHT22;133;49.626;9.680;2023-05-20T00:54:32;15.00;79.10
298;DHT22;133;49.626;9.680;2023-05-20T00:56:58;14.80;79.50
298;DHT22;133;49.626;9.680;2023-05-20T00:59:25;14.80;80.20
298;DHT22;133;49.626;9.680;2023-05-20T01:01:51;14.80;80.00
298;DHT22;133;49.626;9.680;2023-05-20T01:04:17;14.60;80.40
298;DHT22;133;49.626;9.680;2023-05-20T01:06:43;14.50;80.60
298;DHT22;133;49.626;9.680;2023-05-20T01:09:10;14.30;81.20
298;DHT22;133;49.626;9.680;2023-05-20T01:11:47;14.30;81.20
298;DHT22;133;49.626;9.680;2023-05-20T01:14:15;14.20;81.90
298;DHT22;133;49.626;9.680;2023-05-20T01:16:42;14.10;81.80
298;DHT22;133;49.626;9.680;2023-05-20T01:19:21;14.20;82.00
298;DHT22;133;49.626;9.680;2023-05-20T01:21:47;14.20;81.90
298;DHT22;133;49.626;9.680;2023-05-20T01:24:13;14.10;82.20
298;DHT22;133;49.626;9.680;2023-05-20T01:26:39;14.00;82.50
298;DHT22;133;49.626;9.680;2023-05-20T01:29:05;14.20;82.20
298;DHT22;133;49.626;9.680;2023-05-20T01:31:32;14.00;82.50
298;DHT22;133;49.626;9.680;2023-05-20T01:34:03;14.10;82.30
298;DHT22;133;49.626;9.680;2023-05-20T01:36:30;14.10;82.30
298;DHT22;133;49.626;9.680;2023-05-20T01:38:56;14.20;82.50
298;DHT22;133;49.626;9.680;2023-05-20T01:41:23;14.20;82.40
298;DHT22;133;49.626;9.680;2023-05-20T01:43:50;14.20;82.30
298;DHT22;133;49.626;9.680;2023-05-20T01:46:16;14.30;82.20
298;DHT22;133;49.626;9.680;2023-05-20T01:48:42;14.20;82.50
298;DHT22;133;49.626;9.680;2023-05-20T01:51:07;14.20;82.50
298;DHT22;133;49.626;9.680;2023-05-20T01:53:33;14.30;82.50
298;DHT22;133;49.626;9.680;2023-05-20T01:55:59;14.20;82.70
298;DHT22;133;49.626;9.680;2023-05-20T01:58:24;14.20;82.70
298;DHT22;133;49.626;9.680;2023-05-20T02:00:50;14.20;82.80
298;DHT22;133;49.626;9.680;2023-05-20T02:03:15;14.30;82.60
298;DHT22;133;49.626;9.680;2023-05-20T02:05:41;14.20;82.60
298;DHT22;133;49.626;9.680;2023-05-20T02:08:07;14.10;83.00
298;DHT22;133;49.626;9.680;2023-05-20T02:10:32;14.20;82.80
298;DHT22;133;49.626;9.680;2023-05-20T02:12:58;14.20;83.00
298;DHT22;133;49.626;9.680;2023-05-20T02:15:23;14.20;82.90
298;DHT22;133;49.626;9.680;2023-05-20T02:17:49;14.20;83.00
298;DHT22;133;49.626;9.680;2023-05-20T02:20:15;14.30;82.90
298;DHT22;133;49.626;9.680;2023-05-20T02:22:40;14.20;83.00
298;DHT22;133;49.626;9.680;2023-05-20T02:25:06;14.20;83.10
298;DHT22;133;49.626;9.680;2023-05-20T02:27:32;14.20;83.00
298;DHT22;133;49.626;9.680;2023-05-20T02:29:59;14.30;83.00
298;DHT22;133;49.626;9.680;2023-05-20T02:32:25;14.30;82.80
298;DHT22;133;49.626;9.680;2023-05-20T02:34:53;14.30;83.00
298;DHT22;133;49.626;9.680;2023-05-20T02:37:19;14.30;83.10
298;DHT22;133;49.626;9.680;2023-05-20T02:39:45;14.30;83.10
298;DHT22;133;49.626;9.680;2023-05-20T02:42:11;14.30;83.00
298;DHT22;133;49.626;9.680;2023-05-20T02:44:36;14.20;83.50
298;DHT22;133;49.626;9.680;2023-05-20T02:47:02;14.20;83.60
298;DHT22;133;49.626;9.680;2023-05-20T02:49:27;14.30;83.40
298;DHT22;133;49.626;9.680;2023-05-20T02:51:53;14.30;83.30
298;DHT22;133;49.626;9.680;2023-05-20T02:54:18;14.30;83.20
298;DHT22;133;49.626;9.680;2023-05-20T02:56:44;14.30;83.20
298;DHT22;133;49.626;9.680;2023-05-20T02:59:10;14.30;83.10
298;DHT22;133;49.626;9.680;2023-05-20T03:01:36;14.30;83.10
298;DHT22;133;49.626;9.680;2023-05-20T03:04:02;14.30;83.20
298;DHT22;133;49.626;9.680;2023-05-20T03:06:29;14.20;83.50
298;DHT22;133;49.626;9.680;2023-05-20T03:08:56;14.20;83.80
298;DHT22;133;49.626;9.680;2023-05-20T03:11:22;14.20;83.60
298;DHT22;133;49.626;9.680;2023-05-20T03:13:48;14.20;83.70
298;DHT22;133;49.626;9.680;2023-05-20T03:16:13;14.20;83.90
298;DHT22;133;49.626;9.680;2023-05-20T03:18:39;14.30;83.70
298;DHT22;133;49.626;9.680;2023-05-20T03:21:05;14.20;83.60
298;DHT22;133;49.626;9.680;2023-05-20T03:23:30;14.10;84.20
298;DHT22;133;49.626;9.680;2023-05-20T03:25:56;14.20;84.00
298;DHT22;133;49.626;9.680;2023-05-20T03:28:21;14.30;83.70
298;DHT22;133;49.626;9.680;2023-05-20T03:30:47;14.30;83.80
298;DHT22;133;49.626;9.680;2023-05-20T03:33:12;14.30;83.80
298;DHT22;133;49.626;9.680;2023-05-20T03:35:40;14.30;83.90
298;DHT22;133;49.626;9.680;2023-05-20T03:38:06;14.30;83.90
298;DHT22;133;49.626;9.680;2023-05-20T03:40:31;14.30;84.00
298;DHT22;133;49.626;9.680;2023-05-20T03:42:57;14.30;84.20
298;DHT22;133;49.626;9.680;2023-05-20T03:45:22;14.30;84.20
298;DHT22;133;49.626;9.680;2023-05-20T03:47:48;14.50;83.80
298;DHT22;133;49.626;9.680;2023-05-20T03:50:14;14.50;83.70
298;DHT22;133;49.626;9.680;2023-05-20T03:52:40;14.40;84.10
298;DHT22;133;49.626;9.680;2023-05-20T03:55:06;14.40;84.20
298;DHT22;133;49.626;9.680;2023-05-20T03:57:32;14.40;84.30
298;DHT22;133;49.626;9.680;2023-05-20T03:59:58;14.40;84.40
298;DHT22;133;49.626;9.680;2023-05-20T04:02:23;14.50;84.40
298;DHT22;133;49.626;9.680;2023-05-20T04:04:49;14.50;84.20
298;DHT22;133;49.626;9.680;2023-05-20T04:07:17;14.60;84.10
298;DHT22;133;49.626;9.680;2023-05-20T04:09:43;14.60;83.70
298;DHT22;133;49.626;9.680;2023-05-20T04:12:08;14.60;83.80
298;DHT22;133;49.626;9.680;2023-05-20T04:14:34;14.70;83.70
298;DHT22;133;49.626;9.680;2023-05-20T04:17:02;14.60;84.00
298;DHT22;133;49.626;9.680;2023-05-20T04:19:28;14.70;83.60
298;DHT22;133;49.626;9.680;2023-05-20T04:21:55;14.80;83.40
298;DHT22;133;49.626;9.680;2023-05-20T04:24:20;14.80;83.50
298;DHT22;133;49.626;9.680;2023-05-20T04:26:50;14.80;83.50
298;DHT22;133;49.626;9.680;2023-05-20T04:29:16;14.80;83.60
298;DHT22;133;49.626;9.680;2023-05-20T04:31:46;14.80;83.50
298;DHT22;133;49.626;9.680;2023-05-20T04:34:13;14.80;83.70
298;DHT22;133;49.626;9.680;2023-05-20T04:36:38;14.90;83.60
298;DHT22;133;49.626;9.680;2023-05-20T04:39:04;14.90;83.70
298;DHT22;133;49.626;9.680;2023-05-20T04:41:31;15.00;83.10
298;DHT22;133;49.626;9.680;2023-05-20T04:43:57;15.00;83.40
298;DHT22;133;49.626;9.680;2023-05-20T04:46:26;15.00;83.40
298;DHT22;133;49.626;9.680;2023-05-20T04:48:52;15.00;83.50
298;DHT22;133;49.626;9.680;2023-05-20T04:51:18;14.90;83.80
298;DHT22;133;49.626;9.680;2023-05-20T04:53:43;15.10;83.40
298;DHT22;133;49.626;9.680;2023-05-20T04:56:10;15.10;83.30
298;DHT22;133;49.626;9.680;2023-05-20T04:58:35;15.10;83.50
298;DHT22;133;49.626;9.680;2023-05-20T05:01:01;15.20;83.10
298;DHT22;133;49.626;9.680;2023-05-20T05:03:27;15.30;83.10
298;DHT22;133;49.626;9.680;2023-05-20T05:05:56;15.40;83.10
298;DHT22;133;49.626;9.680;2023-05-20T05:08:22;15.40;82.70
298;DHT22;133;49.626;9.680;2023-05-20T05:10:48;15.40;82.80
298;DHT22;133;49.626;9.680;2023-05-20T05:13:13;15.50;82.70
298;DHT22;133;49.626;9.680;2023-05-20T05:15:39;15.50;82.30
298;DHT22;133;49.626;9.680;2023-05-20T05:18:04;15.50;82.50
298;DHT22;133;49.626;9.680;2023-05-20T05:20:30;15.40;82.60
298;DHT22;133;49.626;9.680;2023-05-20T05:22:55;15.40;83.10
298;DHT22;133;49.626;9.680;2023-05-20T05:25:21;15.40;83.10
298;DHT22;133;49.626;9.680;2023-05-20T05:27:47;15.40;83.60
298;DHT22;133;49.626;9.680;2023-05-20T05:30:14;15.40;83.40
298;DHT22;133;49.626;9.680;2023-05-20T05:32:40;15.50;83.20
298;DHT22;133;49.626;9.680;2023-05-20T05:35:06;15.50;83.30
298;DHT22;133;49.626;9.680;2023-05-20T05:37:32;15.60;83.30
298;DHT22;133;49.626;9.680;2023-05-20T05:39:57;15.60;83.30
298;DHT22;133;49.626;9.680;2023-05-20T05:42:23;15.70;83.10
298;DHT22;133;49.626;9.680;2023-05-20T05:44:48;15.70;83.00
298;DHT22;133;49.626;9.680;2023-05-20T05:47:14;15.70;83.00
298;DHT22;133;49.626;9.680;2023-05-20T05:49:40;15.70;83.10
298;DHT22;133;49.626;9.680;2023-05-20T05:52:05;15.70;83.10
298;DHT22;133;49.626;9.680;2023-05-20T05:54:31;15.70;83.20
298;DHT22;133;49.626;9.680;2023-05-20T05:56:56;15.60;83.40
298;DHT22;133;49.626;9.680;2023-05-20T05:59:22;15.70;82.90
298;DHT22;133;49.626;9.680;2023-05-20T06:01:48;15.70;83.60
298;DHT22;133;49.626;9.680;2023-05-20T06:04:13;15.70;83.30
298;DHT22;133;49.626;9.680;2023-05-20T06:06:40;15.80;83.10
298;DHT22;133;49.626;9.680;2023-05-20T06:09:05;15.80;83.10
298;DHT22;133;49.626;9.680;2023-05-20T06:11:31;15.80;83.40
298;DHT22;133;49.626;9.680;2023-05-20T06:13:57;15.80;83.20
298;DHT22;133;49.626;9.680;2023-05-20T06:16:23;15.90;83.00
298;DHT22;133;49.626;9.680;2023-05-20T06:18:48;15.90;83.00
298;DHT22;133;49.626;9.680;2023-05-20T06:21:20;15.90;83.00
298;DHT22;133;49.626;9.680;2023-05-20T06:23:45;16.00;82.40
298;DHT22;133;49.626;9.680;2023-05-20T06:26:11;16.00;82.50
298;DHT22;133;49.626;9.680;2023-05-20T06:28:38;16.20;83.00
298;DHT22;133;49.626;9.680;2023-05-20T06:31:03;16.20;82.40
298;DHT22;133;49.626;9.680;2023-05-20T06:33:29;16.20;82.20
298;DHT22;133;49.626;9.680;2023-05-20T06:35:55;16.20;82.20
298;DHT22;133;49.626;9.680;2023-05-20T06:38:21;16.20;82.60
298;DHT22;133;49.626;9.680;2023-05-20T06:40:47;16.20;82.60
298;DHT22;133;49.626;9.680;2023-05-20T06:43:14;16.10;81.90
298;DHT22;133;49.626;9.680;2023-05-20T06:45:40;16.10;82.40
298;DHT22;133;49.626;9.680;2023-05-20T06:48:06;16.20;82.20
298;DHT22;133;49.626;9.680;2023-05-20T06:50:31;16.20;82.20
298;DHT22;133;49.626;9.680;2023-05-20T06:52:57;16.30;82.30
298;DHT22;133;49.626;9.680;2023-05-20T06:55:22;16.40;82.20
298;DHT22;133;49.626;9.680;2023-05-20T06:57:48;16.50;82.20
298;DHT22;133;49.626;9.680;2023-05-20T07:00:14;16.60;81.70
298;DHT22;133;49.626;9.680;2023-05-20T07:02:40;16.60;82.00
298;DHT22;133;49.626;9.680;2023-05-20T07:05:06;16.70;81.80
298;DHT22;133;49.626;9.680;2023-05-20T07:07:32;16.80;82.30
298;DHT22;133;49.626;9.680;2023-05-20T07:09:57;16.90;81.60
298;DHT22;133;49.626;9.680;2023-05-20T07:12:23;17.00;81.10
298;DHT22;133;49.626;9.680;2023-05-20T07:14:49;17.00;80.90
298;DHT22;133;49.626;9.680;2023-05-20T07:17:15;17.00;81.10
298;DHT22;133;49.626;9.680;2023-05-20T07:19:40;17.10;80.60
298;DHT22;133;49.626;9.680;2023-05-20T07:22:06;17.20;80.80
298;DHT22;133;49.626;9.680;2023-05-20T07:24:32;17.30;80.70
298;DHT22;133;49.626;9.680;2023-05-20T07:26:58;17.30;80.50
298;DHT22;133;49.626;9.680;2023-05-20T07:29:23;17.50;80.00
298;DHT22;133;49.626;9.680;2023-05-20T07:31:49;17.60;80.40
298;DHT22;133;49.626;9.680;2023-05-20T07:34:14;17.70;79.80
298;DHT22;133;49.626;9.680;2023-05-20T07:36:40;17.90;79.60
298;DHT22;133;49.626;9.680;2023-05-20T07:39:06;17.90;78.60
298;DHT22;133;49.626;9.680;2023-05-20T07:41:33;18.00;78.60
298;DHT22;133;49.626;9.680;2023-05-20T07:44:01;18.10;78.80
298;DHT22;133;49.626;9.680;2023-05-20T07:46:26;18.10;78.10
298;DHT22;133;49.626;9.680;2023-05-20T07:48:52;18.20;78.50
298;DHT22;133;49.626;9.680;2023-05-20T07:51:17;18.20;78.10
298;DHT22;133;49.626;9.680;2023-05-20T07:53:43;18.20;78.10
298;DHT22;133;49.626;9.680;2023-05-20T07:56:09;18.20;78.00
298;DHT22;133;49.626;9.680;2023-05-20T07:58:34;18.20;77.90
298;DHT22;133;49.626;9.680;2023-05-20T08:01:00;18.40;78.10
298;DHT22;133;49.626;9.680;2023-05-20T08:03:26;18.60;78.20
298;DHT22;133;49.626;9.680;2023-05-20T08:05:51;18.60;77.80
298;DHT22;133;49.626;9.680;2023-05-20T08:08:17;18.70;76.80
298;DHT22;133;49.626;9.680;2023-05-20T08:10:43;18.80;76.80
298;DHT22;133;49.626;9.680;2023-05-20T08:13:08;18.90;77.10
298;DHT22;133;49.626;9.680;2023-05-20T08:15:35;18.90;76.50
298;DHT22;133;49.626;9.680;2023-05-20T08:18:01;19.00;76.10
298;DHT22;133;49.626;9.680;2023-05-20T08:20:27;19.00;76.00
298;DHT22;133;49.626;9.680;2023-05-20T08:22:53;19.10;75.90
298;DHT22;133;49.626;9.680;2023-05-20T08:25:19;19.20;76.50
298;DHT22;133;49.626;9.680;2023-05-20T08:27:45;19.30;75.80
298;DHT22;133;49.626;9.680;2023-05-20T08:30:10;19.40;75.60
298;DHT22;133;49.626;9.680;2023-05-20T08:32:36;19.50;75.70
298;DHT22;133;49.626;9.680;2023-05-20T08:35:02;19.60;75.10
298;DHT22;133;49.626;9.680;2023-05-20T08:37:29;19.60;74.70
298;DHT22;133;49.626;9.680;2023-05-20T08:39:54;19.60;74.70
298;DHT22;133;49.626;9.680;2023-05-20T08:42:23;19.70;74.90
298;DHT22;133;49.626;9.680;2023-05-20T08:44:51;19.80;74.20
298;DHT22;133;49.626;9.680;2023-05-20T08:47:21;19.90;74.10
298;DHT22;133;49.626;9.680;2023-05-20T08:49:48;20.10;73.90
298;DHT22;133;49.626;9.680;2023-05-20T08:52:15;20.30;73.40
298;DHT22;133;49.626;9.680;2023-05-20T08:54:47;20.50;72.40
298;DHT22;133;49.626;9.680;2023-05-20T08:57:13;20.70;71.90
298;DHT22;133;49.626;9.680;2023-05-20T08:59:44;21.00;70.80
298;DHT22;133;49.626;9.680;2023-05-20T09:02:10;21.90;70.40
298;DHT22;133;49.626;9.680;2023-05-20T09:04:36;23.50;66.00
298;DHT22;133;49.626;9.680;2023-05-20T09:07:02;25.20;62.60
298;DHT22;133;49.626;9.680;2023-05-20T09:09:28;26.80;57.80
298;DHT22;133;49.626;9.680;2023-05-20T09:11:54;28.20;55.60
298;DHT22;133;49.626;9.680;2023-05-20T09:14:20;30.00;52.50
298;DHT22;133;49.626;9.680;2023-05-20T09:16:47;31.30;50.40
298;DHT22;133;49.626;9.680;2023-05-20T09:19:13;32.50;47.90
298;DHT22;133;49.626;9.680;2023-05-20T09:21:40;32.70;47.00
298;DHT22;133;49.626;9.680;2023-05-20T09:24:06;32.60;46.00
298;DHT22;133;49.626;9.680;2023-05-20T09:26:32;31.50;46.80
298;DHT22;133;49.626;9.680;2023-05-20T09:28:59;30.40;48.20
298;DHT22;133;49.626;9.680;2023-05-20T09:31:29;29.40;49.80
298;DHT22;133;49.626;9.680;2023-05-20T09:33:55;28.30;51.40
298;DHT22;133;49.626;9.680;2023-05-20T09:36:22;27.30;53.80
298;DHT22;133;49.626;9.680;2023-05-20T09:38:51;27.10;53.90
298;DHT22;133;49.626;9.680;2023-05-20T09:41:19;27.20;54.20
298;DHT22;133;49.626;9.680;2023-05-20T09:43:48;27.90;54.10
298;DHT22;133;49.626;9.680;2023-05-20T09:46:14;29.00;52.70
298;DHT22;133;49.626;9.680;2023-05-20T09:48:41;29.80;51.00
298;DHT22;133;49.626;9.680;2023-05-20T09:51:07;31.00;48.70
298;DHT22;133;49.626;9.680;2023-05-20T09:53:33;31.90;47.90
298;DHT22;133;49.626;9.680;2023-05-20T09:55:58;32.80;46.70
298;DHT22;133;49.626;9.680;2023-05-20T09:58:24;33.00;46.00
298;DHT22;133;49.626;9.680;2023-05-20T10:00:51;33.50;45.40
298;DHT22;133;49.626;9.680;2023-05-20T10:03:20;33.50;45.20
298;DHT22;133;49.626;9.680;2023-05-20T10:20:07;32.60;45.80
298;DHT22;133;49.626;9.680;2023-05-20T10:22:37;32.30;46.10
298;DHT22;133;49.626;9.680;2023-05-20T10:25:06;31.90;47.00
298;DHT22;133;49.626;9.680;2023-05-20T10:27:45;31.00;48.10
298;DHT22;133;49.626;9.680;2023-05-20T10:30:19;29.50;49.80
298;DHT22;133;49.626;9.680;2023-05-20T10:32:52;29.70;50.20
298;DHT22;133;49.626;9.680;2023-05-20T10:35:23;30.40;50.10
298;DHT22;133;49.626;9.680;2023-05-20T10:37:53;30.90;49.90
298;DHT22;133;49.626;9.680;2023-05-20T10:40:20;31.20;49.00
298;DHT22;133;49.626;9.680;2023-05-20T10:42:46;31.60;48.50
298;DHT22;133;49.626;9.680;2023-05-20T10:45:27;31.60;47.80
298;DHT22;133;49.626;9.680;2023-05-20T10:47:57;31.50;48.60
298;DHT22;133;49.626;9.680;2023-05-20T10:50:36;31.60;48.10
298;DHT22;133;49.626;9.680;2023-05-20T10:53:06;32.10;47.50
298;DHT22;133;49.626;9.680;2023-05-20T10:55:37;32.50;46.80
298;DHT22;133;49.626;9.680;2023-05-20T10:58:04;31.50;47.40
298;DHT22;133;49.626;9.680;2023-05-20T11:00:34;31.00;49.10
298;DHT22;133;49.626;9.680;2023-05-20T11:03:01;30.40;49.70
298;DHT22;133;49.626;9.680;2023-05-20T11:05:28;29.60;50.70
298;DHT22;133;49.626;9.680;2023-05-20T11:08:05;29.20;51.00
298;DHT22;133;49.626;9.680;2023-05-20T11:10:32;28.20;52.80
298;DHT22;133;49.626;9.680;2023-05-20T11:13:00;27.90;54.30
298;DHT22;133;49.626;9.680;2023-05-20T11:15:26;28.10;54.30
298;DHT22;133;49.626;9.680;2023-05-20T11:17:57;28.70;53.30
298;DHT22;133;49.626;9.680;2023-05-20T11:20:24;29.30;53.00
298;DHT22;133;49.626;9.680;2023-05-20T11:22:50;29.80;50.70
298;DHT22;133;49.626;9.680;2023-05-20T11:25:17;29.60;51.70
298;DHT22;133;49.626;9.680;2023-05-20T11:27:43;30.00;52.20
298;DHT22;133;49.626;9.680;2023-05-20T11:30:11;30.30;50.10
298;DHT22;133;49.626;9.680;2023-05-20T11:32:37;30.70;49.90
298;DHT22;133;49.626;9.680;2023-05-20T11:35:03;30.30;49.10
298;DHT22;133;49.626;9.680;2023-05-20T11:37:29;29.50;51.60
298;DHT22;133;49.626;9.680;2023-05-20T11:40:03;29.60;52.10
298;DHT22;133;49.626;9.680;2023-05-20T11:42:32;30.10;51.50
298;DHT22;133;49.626;9.680;2023-05-20T11:44:59;30.80;50.00
298;DHT22;133;49.626;9.680;2023-05-20T11:47:25;31.60;48.40
298;DHT22;133;49.626;9.680;2023-05-20T11:49:55;31.60;48.90
298;DHT22;133;49.626;9.680;2023-05-20T11:52:20;31.20;48.70
298;DHT22;133;49.626;9.680;2023-05-20T11:54:52;30.20;49.70
298;DHT22;133;49.626;9.680;2023-05-20T11:57:18;29.50;50.70
298;DHT22;133;49.626;9.680;2023-05-20T11:59:45;28.90;51.50
298;DHT22;133;49.626;9.680;2023-05-20T12:02:11;28.20;52.90
298;DHT22;133;49.626;9.680;2023-05-20T12:04:36;27.90;53.70
298;DHT22;133;49.626;9.680;2023-05-20T12:07:02;27.90;54.50
298;DHT22;133;49.626;9.680;2023-05-20T12:09:28;27.90;54.30
298;DHT22;133;49.626;9.680;2023-05-20T12:11:54;27.60;54.30
298;DHT22;133;49.626;9.680;2023-05-20T12:14:21;27.50;54.50
298;DHT22;133;49.626;9.680;2023-05-20T12:16:46;27.30;55.20
298;DHT22;133;49.626;9.680;2023-05-20T12:19:12;27.30;55.30
298;DHT22;133;49.626;9.680;2023-05-20T12:21:37;27.20;55.60
298;DHT22;133;49.626;9.680;2023-05-20T12:24:03;27.50;55.90
298;DHT22;133;49.626;9.680;2023-05-20T12:26:31;28.10;54.30
298;DHT22;133;49.626;9.680;2023-05-20T12:28:57;28.20;53.40
298;DHT22;133;49.626;9.680;2023-05-20T12:31:24;28.20;53.60
298;DHT22;133;49.626;9.680;2023-05-20T12:33:50;28.20;53.40
298;DHT22;133;49.626;9.680;2023-05-20T12:36:15;27.80;53.90
298;DHT22;133;49.626;9.680;2023-05-20T12:38:41;27.60;54.30
298;DHT22;133;49.626;9.680;2023-05-20T12:41:06;27.70;54.10
298;DHT22;133;49.626;9.680;2023-05-20T12:43:33;28.00;53.00
298;DHT22;133;49.626;9.680;2023-05-20T12:45:59;28.50;53.70
298;DHT22;133;49.626;9.680;2023-05-20T12:48:25;29.20;52.40
298;DHT22;133;49.626;9.680;2023-05-20T12:50:51;29.70;50.50
298;DHT22;133;49.626;9.680;2023-05-20T12:53:16;29.70;50.80
298;DHT22;133;49.626;9.680;2023-05-20T12:55:42;29.70;50.30
298;DHT22;133;49.626;9.680;2023-05-20T12:58:07;29.80;50.90
298;DHT22;133;49.626;9.680;2023-05-20T13:00:34;30.00;50.00
298;DHT22;133;49.626;9.680;2023-05-20T13:02:59;30.10;50.70
298;DHT22;133;49.626;9.680;2023-05-20T13:05:25;30.60;48.70
298;DHT22;133;49.626;9.680;2023-05-20T13:07:51;30.50;49.50
298;DHT22;133;49.626;9.680;2023-05-20T13:10:17;30.20;49.90
298;DHT22;133;49.626;9.680;2023-05-20T13:12:44;30.00;50.10
298;DHT22;133;49.626;9.680;2023-05-20T13:15:11;29.70;49.50
298;DHT22;133;49.626;9.680;2023-05-20T13:17:40;29.80;50.00
298;DHT22;133;49.626;9.680;2023-05-20T13:20:07;29.40;50.60
298;DHT22;133;49.626;9.680;2023-05-20T13:22:33;28.80;51.00
298;DHT22;133;49.626;9.680;2023-05-20T13:24:59;28.60;52.30
298;DHT22;133;49.626;9.680;2023-05-20T13:27:25;28.70;52.80
298;DHT22;133;49.626;9.680;2023-05-20T13:29:51;28.60;52.70
298;DHT22;133;49.626;9.680;2023-05-20T13:32:17;28.60;52.40
298;DHT22;133;49.626;9.680;2023-05-20T13:34:42;28.70;52.40
298;DHT22;133;49.626;9.680;2023-05-20T13:37:08;28.90;52.50
298;DHT22;133;49.626;9.680;2023-05-20T13:39:33;28.90;52.70
298;DHT22;133;49.626;9.680;2023-05-20T13:41:59;29.00;52.10
298;DHT22;133;49.626;9.680;2023-05-20T13:44:25;28.90;51.40
298;DHT22;133;49.626;9.680;2023-05-20T13:46:51;28.80;52.30
298;DHT22;133;49.626;9.680;2023-05-20T13:49:17;28.80;52.60
298;DHT22;133;49.626;9.680;2023-05-20T13:51:42;28.50;52.80
298;DHT22;133;49.626;9.680;2023-05-20T13:54:08;28.40;53.10
298;DHT22;133;49.626;9.680;2023-05-20T13:56:33;28.30;53.70
298;DHT22;133;49.626;9.680;2023-05-20T13:58:59;28.20;53.90
298;DHT22;133;49.626;9.680;2023-05-20T14:01:26;28.20;53.80
298;DHT22;133;49.626;9.680;2023-05-20T14:03:52;28.10;54.00
298;DHT22;133;49.626;9.680;2023-05-20T14:06:17;28.10;53.40
298;DHT22;133;49.626;9.680;2023-05-20T14:08:44;28.00;53.80
298;DHT22;133;49.626;9.680;2023-05-20T14:11:10;28.20;53.70
298;DHT22;133;49.626;9.680;2023-05-20T14:13:36;28.50;53.70
298;DHT22;133;49.626;9.680;2023-05-20T14:16:01;28.60;54.00
298;DHT22;133;49.626;9.680;2023-05-20T14:18:27;28.80;53.10
298;DHT22;133;49.626;9.680;2023-05-20T14:20:52;28.80;53.20
298;DHT22;133;49.626;9.680;2023-05-20T14:23:18;28.70;52.70
298;DHT22;133;49.626;9.680;2023-05-20T14:25:44;28.50;53.10
298;DHT22;133;49.626;9.680;2023-05-20T14:28:09;28.30;53.30
298;DHT22;133;49.626;9.680;2023-05-20T14:30:35;28.10;53.60
298;DHT22;133;49.626;9.680;2023-05-20T14:33:01;27.90;54.70
298;DHT22;133;49.626;9.680;2023-05-20T14:35:27;27.70;54.90
298;DHT22;133;49.626;9.680;2023-05-20T14:37:52;27.40;54.40
298;DHT22;133;49.626;9.680;2023-05-20T14:40:18;27.50;54.60
298;DHT22;133;49.626;9.680;2023-05-20T14:42:43;27.50;54.80
298;DHT22;133;49.626;9.680;2023-05-20T14:45:09;27.60;55.40
298;DHT22;133;49.626;9.680;2023-05-20T14:47:35;27.60;55.00
298;DHT22;133;49.626;9.680;2023-05-20T14:50:01;27.40;55.30
298;DHT22;133;49.626;9.680;2023-05-20T14:52:26;27.50;55.00
298;DHT22;133;49.626;9.680;2023-05-20T14:54:52;27.40;55.30
298;DHT22;133;49.626;9.680;2023-05-20T14:57:17;27.30;56.10
298;DHT22;133;49.626;9.680;2023-05-20T14:59:43;27.40;55.60
298;DHT22;133;49.626;9.680;2023-05-20T15:02:09;27.30;55.80
298;DHT22;133;49.626;9.680;2023-05-20T15:04:35;27.30;55.40
298;DHT22;133;49.626;9.680;2023-05-20T15:07:00;27.50;55.50
298;DHT22;133;49.626;9.680;2023-05-20T15:09:26;27.80;55.90
298;DHT22;133;49.626;9.680;2023-05-20T15:11:52;27.80;55.70
298;DHT22;133;49.626;9.680;2023-05-20T15:14:17;28.20;55.00
298;DHT22;133;49.626;9.680;2023-05-20T15:16:43;28.60;54.50
298;DHT22;133;49.626;9.680;2023-05-20T15:19:11;28.70;53.50
298;DHT22;133;49.626;9.680;2023-05-20T15:21:37;28.60;53.60
298;DHT22;133;49.626;9.680;2023-05-20T15:24:02;28.40;53.60
298;DHT22;133;49.626;9.680;2023-05-20T15:26:31;28.10;54.20
298;DHT22;133;49.626;9.680;2023-05-20T15:28:57;28.00;54.50
298;DHT22;133;49.626;9.680;2023-05-20T15:31:23;27.70;54.30
298;DHT22;133;49.626;9.680;2023-05-20T15:33:49;27.60;54.70
298;DHT22;133;49.626;9.680;2023-05-20T15:36:15;27.40;55.00
298;DHT22;133;49.626;9.680;2023-05-20T15:38:40;27.20;55.10
298;DHT22;133;49.626;9.680;2023-05-20T15:41:06;27.40;55.60
298;DHT22;133;49.626;9.680;2023-05-20T15:43:32;27.30;56.00
298;DHT22;133;49.626;9.680;2023-05-20T15:46:00;27.30;55.60
298;DHT22;133;49.626;9.680;2023-05-20T15:48:25;27.20;55.70
298;DHT22;133;49.626;9.680;2023-05-20T15:50:51;27.20;55.50
298;DHT22;133;49.626;9.680;2023-05-20T15:53:16;27.00;56.00
298;DHT22;133;49.626;9.680;2023-05-20T15:55:42;27.10;56.40
298;DHT22;133;49.626;9.680;2023-05-20T15:58:07;27.00;56.30
298;DHT22;133;49.626;9.680;2023-05-20T16:00:33;26.90;56.50
298;DHT22;133;49.626;9.680;2023-05-20T16:02:59;27.00;56.10
298;DHT22;133;49.626;9.680;2023-05-20T16:05:24;27.00;55.80
298;DHT22;133;49.626;9.680;2023-05-20T16:07:51;27.00;55.50
298;DHT22;133;49.626;9.680;2023-05-20T16:10:18;27.10;55.10
298;DHT22;133;49.626;9.680;2023-05-20T16:12:44;26.90;55.30
298;DHT22;133;49.626;9.680;2023-05-20T16:15:10;26.80;55.50
298;DHT22;133;49.626;9.680;2023-05-20T16:17:36;26.80;55.90
298;DHT22;133;49.626;9.680;2023-05-20T16:20:03;26.90;55.40
298;DHT22;133;49.626;9.680;2023-05-20T16:22:32;26.90;55.10
298;DHT22;133;49.626;9.680;2023-05-20T16:24:58;26.90;55.10
298;DHT22;133;49.626;9.680;2023-05-20T16:27:23;26.90;55.30
298;DHT22;133;49.626;9.680;2023-05-20T16:29:49;26.80;55.70
298;DHT22;133;49.626;9.680;2023-05-20T16:32:15;26.60;55.90
298;DHT22;133;49.626;9.680;2023-05-20T16:34:40;26.50;56.50
298;DHT22;133;49.626;9.680;2023-05-20T16:37:06;26.50;56.10
298;DHT22;133;49.626;9.680;2023-05-20T16:39:32;26.50;56.50
298;DHT22;133;49.626;9.680;2023-05-20T16:41:57;26.60;56.40